Time;durP1;ratioP1;P1;durP2;ratioP2;P2;SDS_P1;SDS_P2;PMS_P1;PMS_P2;Temp;Humidity;BMP_temperature;BMP_pressure;BME280_temperature;BME280_humidity;BME280_pressure;Samples;Min_cycle;Max_cycle;Signal;HPM_P1;HPM_P2
2023/06/14 00:01:02;;;;;;;;;;;;;;;17.17;69.22;99504.34;5047995;28;19920;-62
2023/06/14 00:03:27;;;;;;;;;;;;;;;17.12;69.66;99501.13;5030548;28;19959;-62
2023/06/14 00:05:53;;;;;;;;;;;;;;;17.07;68.77;99501.41;5048087;28;20340;-62
2023/06/14 00:08:19;;;;;;;;;;;;;;;17.07;69.08;99509.47;5047377;28;20303;-62
2023/06/14 00:10:44;;;;;;;;;;;;;;;17.02;68.88;99509.78;5048419;28;19908;-62
2023/06/14 00:13:10;;;;;;;;;;;;;;;17.01;68.60;99515.28;5048732;28;19917;-62
2023/06/14 00:15:35;;;;;;;;;;;;;;;17.00;68.78;99524.31;5048100;28;20376;-61
2023/06/14 00:18:01;;;;;;;;;;;;;;;16.92;67.82;99507.81;5048712;28;19916;-62
2023/06/14 00:20:27;;;;;;;;;;;;;;;16.91;67.71;99503.41;5048611;28;19917;-62
2023/06/14 00:22:52;;;;;;;;;;;;;;;16.98;67.56;99502.88;5051835;28;19920;-61
2023/06/14 00:25:17;;;;;;;;;;;;;;;17.09;68.37;99508.41;5049100;28;19913;-62
2023/06/14 00:27:43;;;;;;;;;;;;;;;16.94;67.68;99503.19;5034837;28;20397;-61
2023/06/14 00:30:08;;;;;;;;;;;;;;;16.77;68.01;99507.00;5052309;28;19951;-62
2023/06/14 00:32:33;;;;;;;;;;;;;;;16.70;68.43;99500.31;5034606;28;20392;-62
2023/06/14 00:34:59;;;;;;;;;;;;;;;16.66;69.02;99503.28;5051969;28;19912;-62
2023/06/14 00:37:24;;;;;;;;;;;;;;;16.68;68.61;99496.00;5030824;28;20304;-61
2023/06/14 00:39:49;;;;;;;;;;;;;;;16.68;69.27;99506.75;5037757;28;19919;-61
2023/06/14 00:42:27;;;;;;;;;;;;;;;16.70;69.82;99502.13;5051896;28;19909;-61
2023/06/14 00:44:53;;;;;;;;;;;;;;;16.69;69.59;99492.34;5051578;28;19920;-62
2023/06/14 00:47:19;;;;;;;;;;;;;;;16.74;69.17;99500.97;5032953;28;20532;-62
2023/06/14 00:49:48;;;;;;;;;;;;;;;16.78;68.99;99508.75;5051862;28;19916;-62
2023/06/14 00:52:16;;;;;;;;;;;;;;;16.78;69.41;99497.13;5051623;28;19917;-62
2023/06/14 00:54:42;;;;;;;;;;;;;;;16.78;69.21;99497.13;5052058;28;19908;-62
2023/06/14 00:57:07;;;;;;;;;;;;;;;16.71;69.96;99501.16;5051297;28;19923;-62
2023/06/14 00:59:33;;;;;;;;;;;;;;;16.68;69.27;99490.63;5051898;28;19920;-62
2023/06/14 01:01:58;;;;;;;;;;;;;;;16.60;70.32;99496.53;5042984;28;19917;-65
2023/06/14 01:04:24;;;;;;;;;;;;;;;16.59;69.98;99497.47;5031988;28;19975;-65
2023/06/14 01:06:50;;;;;;;;;;;;;;;16.60;70.26;99503.69;5035186;28;19943;-65
2023/06/14 01:09:27;;;;;;;;;;;;;;;16.53;70.53;99499.69;5051937;28;19993;-65
2023/06/14 01:11:52;;;;;;;;;;;;;;;16.45;70.97;99499.28;5051448;28;19919;-65
2023/06/14 01:14:18;;;;;;;;;;;;;;;16.38;71.73;99497.94;5046028;28;19913;-65
2023/06/14 01:16:45;;;;;;;;;;;;;;;16.34;71.91;99499.13;5051331;28;19921;-65
2023/06/14 01:19:13;;;;;;;;;;;;;;;16.31;72.42;99507.38;5052338;28;20387;-65
2023/06/14 01:21:41;;;;;;;;;;;;;;;16.29;72.98;99509.28;5050663;28;20704;-65
2023/06/14 01:24:07;;;;;;;;;;;;;;;16.30;72.44;99505.63;5051081;28;19913;-65
2023/06/14 01:26:32;;;;;;;;;;;;;;;16.26;72.79;99498.75;5051166;28;20395;-65
2023/06/14 01:28:58;;;;;;;;;;;;;;;16.25;72.15;99508.63;5047943;28;20446;-65
2023/06/14 01:31:24;;;;;;;;;;;;;;;16.23;72.52;99504.28;5050133;28;19917;-65
2023/06/14 01:33:50;;;;;;;;;;;;;;;16.20;72.23;99508.03;5048700;28;19916;-65
2023/06/14 01:36:16;;;;;;;;;;;;;;;16.16;72.98;99509.19;5046586;28;19921;-65
2023/06/14 01:38:42;;;;;;;;;;;;;;;16.13;72.58;99508.53;5049890;28;19909;-65
2023/06/14 01:41:08;;;;;;;;;;;;;;;16.08;73.47;99508.81;5049511;28;20287;-65
2023/06/14 01:43:34;;;;;;;;;;;;;;;16.03;73.17;99504.72;5037023;28;19994;-64
2023/06/14 01:46:00;;;;;;;;;;;;;;;15.94;74.10;99508.84;5050654;28;20402;-65
2023/06/14 01:48:26;;;;;;;;;;;;;;;15.90;73.90;99512.66;5050627;28;19923;-65
2023/06/14 01:50:52;;;;;;;;;;;;;;;15.88;73.22;99513.72;5051258;28;19921;-65
2023/06/14 01:53:17;;;;;;;;;;;;;;;15.86;72.49;99518.31;5050405;28;19912;-65
2023/06/14 01:55:43;;;;;;;;;;;;;;;15.85;72.70;99513.91;5050833;28;19920;-65
2023/06/14 01:58:13;;;;;;;;;;;;;;;15.85;73.06;99517.44;5051117;28;20453;-64
2023/06/14 02:00:38;;;;;;;;;;;;;;;15.83;72.49;99512.16;5037987;28;19956;-65
2023/06/14 02:03:06;;;;;;;;;;;;;;;15.82;72.87;99515.81;5030857;28;19952;-65
2023/06/14 02:05:32;;;;;;;;;;;;;;;15.84;71.75;99513.03;5030367;28;19923;-65
2023/06/14 02:07:57;;;;;;;;;;;;;;;15.86;71.80;99510.25;5030830;28;19995;-64
2023/06/14 02:10:22;;;;;;;;;;;;;;;15.83;71.88;99509.47;5030935;28;19940;-64
2023/06/14 02:12:48;;;;;;;;;;;;;;;15.79;71.80;99516.00;5029570;28;20035;-64
2023/06/14 02:15:19;;;;;;;;;;;;;;;15.78;71.24;99519.63;5030840;28;19920;-65
2023/06/14 02:17:47;;;;;;;;;;;;;;;15.77;71.97;99512.56;5029872;28;20016;-64
2023/06/14 02:20:13;;;;;;;;;;;;;;;15.78;71.85;99514.25;5030517;28;19955;-65
2023/06/14 02:22:38;;;;;;;;;;;;;;;15.72;72.78;99514.66;5030035;28;20373;-64
2023/06/14 02:25:04;;;;;;;;;;;;;;;15.66;72.22;99512.38;5028829;28;19920;-64
2023/06/14 02:27:29;;;;;;;;;;;;;;;15.63;72.10;99514.38;5029594;28;19974;-64
2023/06/14 02:29:54;;;;;;;;;;;;;;;15.59;72.21;99512.81;5029065;28;20567;-65
2023/06/14 02:32:20;;;;;;;;;;;;;;;15.53;71.78;99523.91;5029392;28;19963;-65
2023/06/14 02:34:49;;;;;;;;;;;;;;;15.48;72.60;99532.25;5029615;28;19912;-64
2023/06/14 02:37:14;;;;;;;;;;;;;;;15.46;71.69;99528.78;5028679;28;19916;-65
2023/06/14 02:39:40;;;;;;;;;;;;;;;15.48;71.19;99523.31;5028729;28;20015;-64
2023/06/14 02:42:06;;;;;;;;;;;;;;;15.52;71.56;99525.72;5029081;28;20262;-64
2023/06/14 02:44:32;;;;;;;;;;;;;;;15.48;71.06;99521.53;5028100;28;19927;-64
2023/06/14 02:46:58;;;;;;;;;;;;;;;15.47;71.04;99519.78;5029098;28;19916;-64
2023/06/14 02:49:24;;;;;;;;;;;;;;;15.44;71.00;99517.28;5028698;28;19943;-64
2023/06/14 02:51:49;;;;;;;;;;;;;;;15.40;71.44;99523.78;5028124;28;19917;-64
2023/06/14 02:54:14;;;;;;;;;;;;;;;15.36;73.04;99522.22;5030171;28;20054;-64
2023/06/14 02:56:40;;;;;;;;;;;;;;;15.33;72.29;99525.09;5029259;28;19943;-65
2023/06/14 02:59:06;;;;;;;;;;;;;;;15.30;72.77;99533.31;5029623;28;19917;-65
2023/06/14 03:01:34;;;;;;;;;;;;;;;15.29;71.75;99528.88;5048516;28;19982;-65
2023/06/14 03:04:03;;;;;;;;;;;;;;;15.31;71.75;99529.66;5049113;28;19956;-65
2023/06/14 03:06:30;;;;;;;;;;;;;;;15.35;71.25;99533.88;5049608;28;19959;-66
2023/06/14 03:08:59;;;;;;;;;;;;;;;15.33;72.26;99533.13;5048667;28;19917;-65
2023/06/14 03:11:25;;;;;;;;;;;;;;;15.30;72.21;99527.06;5049849;28;19920;-65
2023/06/14 03:13:50;;;;;;;;;;;;;;;15.32;72.10;99534.06;5049409;28;19919;-65
2023/06/14 03:16:17;;;;;;;;;;;;;;;15.33;71.46;99535.81;5048163;28;20007;-65
2023/06/14 03:18:42;;;;;;;;;;;;;;;15.32;71.46;99541.25;5048672;28;19909;-64
2023/06/14 03:21:08;;;;;;;;;;;;;;;15.32;70.63;99539.41;5049037;28;19963;-64
2023/06/14 03:23:34;;;;;;;;;;;;;;;15.34;71.66;99539.31;5046975;28;19970;-64
2023/06/14 03:25:59;;;;;;;;;;;;;;;15.33;70.54;99543.84;5047473;28;20384;-64
2023/06/14 03:28:25;;;;;;;;;;;;;;;15.34;70.68;99548.22;5046793;28;20369;-64
2023/06/14 03:30:51;;;;;;;;;;;;;;;15.38;70.39;99551.59;5047284;28;19952;-64
2023/06/14 03:33:16;;;;;;;;;;;;;;;15.40;70.70;99547.88;5046889;28;20407;-64
2023/06/14 03:35:42;;;;;;;;;;;;;;;15.41;71.40;99555.00;5048076;28;19908;-64
2023/06/14 03:38:07;;;;;;;;;;;;;;;15.39;71.75;99558.69;5046799;28;19924;-64
2023/06/14 03:40:32;;;;;;;;;;;;;;;15.41;71.41;99552.31;5047637;28;20308;-64
2023/06/14 03:42:57;;;;;;;;;;;;;;;15.46;71.76;99563.63;5048380;28;19950;-64
2023/06/14 03:45:23;;;;;;;;;;;;;;;15.56;71.08;99566.63;5048359;28;19950;-64
2023/06/14 03:47:48;;;;;;;;;;;;;;;15.57;71.33;99569.19;5048804;28;19913;-65
2023/06/14 03:50:13;;;;;;;;;;;;;;;15.59;71.63;99578.03;5049317;28;19921;-64
2023/06/14 03:52:40;;;;;;;;;;;;;;;15.58;70.83;99575.44;5049573;28;20292;-65
2023/06/14 03:55:05;;;;;;;;;;;;;;;15.61;71.21;99576.13;5047884;28;20383;-63
2023/06/14 03:57:31;;;;;;;;;;;;;;;15.69;70.62;99583.69;5050298;28;19917;-64
2023/06/14 03:59:56;;;;;;;;;;;;;;;15.69;70.58;99584.56;5052350;28;19932;-64
2023/06/14 04:02:22;;;;;;;;;;;;;;;15.73;69.52;99580.72;5052516;28;19928;-64
2023/06/14 04:04:48;;;;;;;;;;;;;;;15.76;69.49;99582.38;5051398;28;19932;-64
2023/06/14 04:07:14;;;;;;;;;;;;;;;15.79;69.59;99585.75;5051724;28;19916;-64
2023/06/14 04:09:39;;;;;;;;;;;;;;;15.79;69.42;99587.53;5052416;28;19920;-64
2023/06/14 04:12:05;;;;;;;;;;;;;;;15.82;69.49;99588.22;5048587;28;19984;-64
2023/06/14 04:14:32;;;;;;;;;;;;;;;15.89;68.76;99586.03;5052943;28;19929;-64
2023/06/14 04:16:58;;;;;;;;;;;;;;;15.95;69.10;99603.59;5052776;28;19916;-64
2023/06/14 04:19:23;;;;;;;;;;;;;;;15.98;68.51;99600.72;5033829;28;19921;-64
2023/06/14 04:21:48;;;;;;;;;;;;;;;16.04;69.74;99598.50;5052904;28;19912;-64
2023/06/14 04:24:14;;;;;;;;;;;;;;;16.08;68.56;99602.72;5052965;28;19916;-64
2023/06/14 04:26:40;;;;;;;;;;;;;;;16.12;68.85;99600.72;5051648;28;19920;-64
2023/06/14 04:29:06;;;;;;;;;;;;;;;16.16;69.50;99608.47;5050669;28;20389;-64
2023/06/14 04:31:37;;;;;;;;;;;;;;;16.17;70.37;99604.84;5051363;28;19978;-64
2023/06/14 04:34:05;;;;;;;;;;;;;;;16.18;70.87;99609.25;5050811;28;19917;-64
2023/06/14 04:36:32;;;;;;;;;;;;;;;16.21;70.32;99616.25;5051349;28;19920;-64
2023/06/14 04:38:58;;;;;;;;;;;;;;;16.27;70.49;99621.25;5050707;28;19916;-64
2023/06/14 04:41:28;;;;;;;;;;;;;;;16.35;69.96;99621.63;5052334;28;19920;-64
2023/06/14 04:43:53;;;;;;;;;;;;;;;16.45;70.73;99612.94;5051521;28;19935;-64
2023/06/14 04:46:20;;;;;;;;;;;;;;;16.54;71.06;99616.88;5052465;28;19916;-64
2023/06/14 04:48:45;;;;;;;;;;;;;;;16.66;70.23;99616.09;5052550;28;19912;-64
2023/06/14 04:51:11;;;;;;;;;;;;;;;16.77;70.59;99617.13;5032116;28;20008;-64
2023/06/14 04:53:36;;;;;;;;;;;;;;;16.91;69.50;99632.38;5049772;28;19974;-65
2023/06/14 04:56:03;;;;;;;;;;;;;;;17.01;69.54;99618.25;5050743;28;20334;-64
2023/06/14 04:58:28;;;;;;;;;;;;;;;17.15;70.14;99632.59;5051295;28;19916;-64
2023/06/14 05:00:55;;;;;;;;;;;;;;;17.25;69.55;99631.03;5050361;28;19951;-64
2023/06/14 05:03:21;;;;;;;;;;;;;;;17.37;68.37;99631.09;5051228;28;19914;-64
2023/06/14 05:05:46;;;;;;;;;;;;;;;17.51;67.95;99639.13;5051356;28;19908;-64
2023/06/14 05:08:11;;;;;;;;;;;;;;;17.65;68.00;99635.50;5043372;28;20289;-63
2023/06/14 05:10:37;;;;;;;;;;;;;;;17.74;66.74;99629.53;5040885;28;19948;-62
2023/06/14 05:13:02;;;;;;;;;;;;;;;17.94;66.21;99629.88;5036986;28;19909;-64
2023/06/14 05:15:28;;;;;;;;;;;;;;;18.22;65.04;99634.19;5037296;28;19916;-64
2023/06/14 05:17:55;;;;;;;;;;;;;;;18.57;64.98;99637.13;5051817;28;19924;-68
2023/06/14 05:20:24;;;;;;;;;;;;;;;18.71;64.61;99631.66;5052017;28;19999;-64
2023/06/14 05:22:51;;;;;;;;;;;;;;;18.72;61.94;99636.06;5048329;28;20364;-65
2023/06/14 05:25:17;;;;;;;;;;;;;;;18.85;63.04;99631.50;5033468;28;20565;-67
2023/06/14 05:27:42;;;;;;;;;;;;;;;18.93;60.89;99634.53;5042903;28;19917;-64
2023/06/14 05:30:08;;;;;;;;;;;;;;;18.99;60.93;99639.47;5051285;28;19935;-63
2023/06/14 05:32:33;;;;;;;;;;;;;;;19.08;59.93;99641.47;5050608;28;19920;-62
2023/06/14 05:34:59;;;;;;;;;;;;;;;19.19;60.01;99641.56;5024287;28;19948;-64
2023/06/14 05:37:24;;;;;;;;;;;;;;;19.34;60.61;99641.31;5038024;28;20007;-64
2023/06/14 05:39:50;;;;;;;;;;;;;;;19.48;59.55;99640.28;5045186;28;20572;-68
2023/06/14 05:42:15;;;;;;;;;;;;;;;19.60;58.85;99647.47;5052910;28;19909;-63
2023/06/14 05:44:40;;;;;;;;;;;;;;;19.72;58.89;99649.22;5051378;28;20020;-64
2023/06/14 05:47:05;;;;;;;;;;;;;;;19.85;59.05;99657.28;5050157;28;20284;-67
2023/06/14 05:49:31;;;;;;;;;;;;;;;19.93;57.19;99655.72;5051172;28;19919;-66
2023/06/14 05:51:56;;;;;;;;;;;;;;;20.07;56.34;99658.22;5050941;28;19995;-64
2023/06/14 05:54:21;;;;;;;;;;;;;;;20.21;57.63;99655.34;5032939;28;19912;-64
2023/06/14 05:56:47;;;;;;;;;;;;;;;20.35;57.18;99660.53;5049902;28;19936;-68
2023/06/14 05:59:12;;;;;;;;;;;;;;;20.49;57.85;99654.03;5033717;28;20713;-68
2023/06/14 06:01:39;;;;;;;;;;;;;;;20.57;57.43;99657.88;5042174;28;19921;-63
2023/06/14 06:04:05;;;;;;;;;;;;;;;20.72;56.03;99670.13;5046381;28;19912;-63
2023/06/14 06:06:30;;;;;;;;;;;;;;;20.77;56.37;99662.53;5050017;28;20023;-67
2023/06/14 06:08:55;;;;;;;;;;;;;;;20.94;56.49;99669.28;5034458;28;19912;-63
2023/06/14 06:11:21;;;;;;;;;;;;;;;21.11;55.87;99667.97;5034490;28;20441;-66
2023/06/14 06:13:46;;;;;;;;;;;;;;;21.28;54.19;99670.16;5052326;28;19912;-66
2023/06/14 06:16:11;;;;;;;;;;;;;;;21.34;53.25;99672.34;5052500;28;19969;-66
2023/06/14 06:18:37;;;;;;;;;;;;;;;21.42;53.19;99672.59;5050966;28;20265;-67
2023/06/14 06:21:03;;;;;;;;;;;;;;;21.48;53.08;99672.09;5049295;28;19908;-68
2023/06/14 06:23:28;;;;;;;;;;;;;;;21.64;52.95;99672.53;5049751;28;19912;-68
2023/06/14 06:25:54;;;;;;;;;;;;;;;21.71;51.23;99677.31;5039670;28;19921;-68
2023/06/14 06:28:20;;;;;;;;;;;;;;;21.88;50.87;99678.63;5017347;28;20015;-68
2023/06/14 06:30:45;;;;;;;;;;;;;;;21.98;48.86;99671.47;5045707;28;20372;-68
2023/06/14 06:33:11;;;;;;;;;;;;;;;22.17;49.93;99679.75;5048119;28;19935;-69
2023/06/14 06:35:37;;;;;;;;;;;;;;;22.34;49.62;99668.31;5050297;28;19912;-69
2023/06/14 06:38:02;;;;;;;;;;;;;;;22.45;47.51;99681.81;5049739;28;20019;-68
2023/06/14 06:40:27;;;;;;;;;;;;;;;22.47;47.33;99679.81;5032100;28;19986;-68
2023/06/14 06:42:54;;;;;;;;;;;;;;;22.61;46.84;99679.53;5040242;28;19953;-68
2023/06/14 06:45:19;;;;;;;;;;;;;;;22.69;47.02;99685.13;5043042;28;19946;-68
2023/06/14 06:47:44;;;;;;;;;;;;;;;22.65;45.97;99689.09;5032144;28;19912;-68
2023/06/14 06:50:10;;;;;;;;;;;;;;;22.75;46.57;99690.00;5049137;28;20377;-68
2023/06/14 06:52:35;;;;;;;;;;;;;;;22.87;47.00;99688.94;5049782;28;19909;-68
2023/06/14 06:55:02;;;;;;;;;;;;;;;23.07;47.04;99693.47;5048843;28;20260;-68
2023/06/14 06:57:28;;;;;;;;;;;;;;;23.02;45.63;99692.13;5048078;28;19916;-69
2023/06/14 06:59:54;;;;;;;;;;;;;;;23.16;45.82;99695.34;5029793;28;19941;-69
2023/06/14 07:02:19;;;;;;;;;;;;;;;23.29;45.62;99693.28;5039598;28;19916;-68
2023/06/14 07:04:44;;;;;;;;;;;;;;;23.42;43.35;99696.63;5049959;28;19913;-68
2023/06/14 07:07:09;;;;;;;;;;;;;;;23.58;44.90;99695.22;5039411;28;20101;-68
2023/06/14 07:09:35;;;;;;;;;;;;;;;23.68;44.44;99702.41;5049419;28;19920;-68
2023/06/14 07:12:00;;;;;;;;;;;;;;;23.98;43.54;99705.06;5049542;28;19917;-68
2023/06/14 07:14:26;;;;;;;;;;;;;;;24.13;44.01;99710.94;5048870;28;20281;-68
2023/06/14 07:16:51;;;;;;;;;;;;;;;24.26;43.60;99703.34;5048417;28;19916;-68
2023/06/14 07:19:17;;;;;;;;;;;;;;;24.39;42.18;99707.47;5049506;28;19913;-68
2023/06/14 07:21:42;;;;;;;;;;;;;;;24.55;43.25;99710.47;5049071;28;19916;-68
2023/06/14 07:24:07;;;;;;;;;;;;;;;24.78;43.40;99704.75;5049476;28;19913;-68
2023/06/14 07:26:33;;;;;;;;;;;;;;;24.85;41.31;99712.16;5048769;28;19962;-68
2023/06/14 07:28:58;;;;;;;;;;;;;;;25.09;41.25;99717.94;5045085;28;19986;-68
2023/06/14 07:31:24;;;;;;;;;;;;;;;25.05;41.67;99713.81;5040438;28;19917;-68
2023/06/14 07:33:49;;;;;;;;;;;;;;;25.34;41.22;99714.56;5042707;28;19913;-68
2023/06/14 07:36:14;;;;;;;;;;;;;;;25.70;40.79;99713.66;5049238;28;20391;-67
2023/06/14 07:38:40;;;;;;;;;;;;;;;26.00;39.69;99712.47;5049558;28;20022;-65
2023/06/14 07:41:06;;;;;;;;;;;;;;;26.25;40.05;99706.28;5047458;28;19940;-67
2023/06/14 07:43:31;;;;;;;;;;;;;;;26.48;40.21;99707.50;5035789;28;20396;-67
2023/06/14 07:45:56;;;;;;;;;;;;;;;26.67;38.58;99703.78;5031573;28;20276;-67
2023/06/14 07:48:22;;;;;;;;;;;;;;;26.93;37.85;99707.34;5028600;28;19931;-67
2023/06/14 07:50:47;;;;;;;;;;;;;;;27.41;38.99;99713.13;5047353;28;19913;-67
2023/06/14 07:53:12;;;;;;;;;;;;;;;27.37;37.58;99711.72;5046285;28;19913;-68
2023/06/14 07:55:39;;;;;;;;;;;;;;;27.59;36.95;99716.63;5043702;28;20011;-67
2023/06/14 07:58:04;;;;;;;;;;;;;;;27.44;36.93;99715.53;5030320;28;19928;-67
2023/06/14 08:00:30;;;;;;;;;;;;;;;27.74;38.81;99709.47;5031851;28;19925;-67
2023/06/14 08:02:59;;;;;;;;;;;;;;;27.91;37.98;99722.22;5049552;28;19923;-67
2023/06/14 08:05:27;;;;;;;;;;;;;;;27.82;36.03;99716.88;5045300;28;19970;-66
2023/06/14 08:07:53;;;;;;;;;;;;;;;27.76;36.31;99718.38;5034832;28;19967;-67
2023/06/14 08:10:18;;;;;;;;;;;;;;;27.82;36.95;99720.47;5047216;28;19916;-67
2023/06/14 08:12:44;;;;;;;;;;;;;;;27.87;36.18;99723.56;5039755;28;19923;-66
2023/06/14 08:15:10;;;;;;;;;;;;;;;28.05;37.12;99724.31;5029913;28;19963;-67
2023/06/14 08:17:36;;;;;;;;;;;;;;;28.00;36.64;99732.16;5033189;28;19948;-66
2023/06/14 08:20:01;;;;;;;;;;;;;;;28.15;35.39;99726.91;5031688;28;19917;-65
2023/06/14 08:22:28;;;;;;;;;;;;;;;28.27;35.85;99729.13;5047233;28;19954;-67
2023/06/14 08:24:54;;;;;;;;;;;;;;;28.64;36.22;99728.66;5040993;28;20023;-67
2023/06/14 08:27:19;;;;;;;;;;;;;;;28.47;36.16;99729.66;5046137;28;19995;-65
2023/06/14 08:29:45;;;;;;;;;;;;;;;28.53;35.31;99729.03;5028868;28;20619;-65
2023/06/14 08:32:10;;;;;;;;;;;;;;;28.54;34.58;99729.84;5016054;28;19923;-65
2023/06/14 08:34:35;;;;;;;;;;;;;;;28.79;36.25;99731.56;5027983;28;19913;-66
2023/06/14 08:37:01;;;;;;;;;;;;;;;29.25;37.65;99730.84;5037345;28;20076;-65
2023/06/14 08:39:26;;;;;;;;;;;;;;;29.72;36.20;99733.63;5020614;28;20015;-65
2023/06/14 08:41:52;;;;;;;;;;;;;;;29.69;34.56;99723.84;5039975;28;20023;-65
2023/06/14 08:44:17;;;;;;;;;;;;;;;29.93;35.68;99731.09;5023377;28;19917;-65
2023/06/14 08:46:43;;;;;;;;;;;;;;;30.07;35.06;99739.41;5037697;28;19919;-64
2023/06/14 08:49:11;;;;;;;;;;;;;;;29.73;33.56;99747.16;5048774;28;19943;-65
2023/06/14 08:51:37;;;;;;;;;;;;;;;29.67;35.34;99731.41;5038876;28;19913;-65
2023/06/14 08:54:04;;;;;;;;;;;;;;;30.12;34.80;99731.50;5046384;28;19919;-66
2023/06/14 08:56:30;;;;;;;;;;;;;;;30.35;35.50;99743.38;5047345;28;20490;-66
2023/06/14 08:58:56;;;;;;;;;;;;;;;30.42;33.69;99735.28;5037585;28;19917;-65
2023/06/14 09:01:23;;;;;;;;;;;;;;;30.68;34.23;99733.88;5042430;28;19924;-66
2023/06/14 09:03:48;;;;;;;;;;;;;;;30.44;33.92;99731.31;5043979;28;19917;-65
2023/06/14 09:06:15;;;;;;;;;;;;;;;30.29;34.48;99744.13;5044445;28;20023;-66
2023/06/14 09:08:44;;;;;;;;;;;;;;;30.32;34.59;99746.50;5040559;28;19924;-65
2023/06/14 09:11:13;;;;;;;;;;;;;;;30.52;33.83;99739.50;5041419;28;20336;-66
2023/06/14 09:13:38;;;;;;;;;;;;;;;31.09;33.09;99741.78;5047474;28;19908;-65
2023/06/14 09:16:04;;;;;;;;;;;;;;;31.08;32.85;99740.03;5038016;28;19924;-65
2023/06/14 09:18:44;;;;;;;;;;;;;;;30.92;33.41;99745.72;5046289;28;20383;-65
2023/06/14 09:21:10;;;;;;;;;;;;;;;31.18;32.75;99740.63;5043329;28;19920;-65
2023/06/14 09:23:39;;;;;;;;;;;;;;;31.43;32.15;99744.88;5031395;28;19917;-65
2023/06/14 09:26:11;;;;;;;;;;;;;;;31.25;31.56;99752.59;5036912;28;19929;-64
2023/06/14 09:28:40;;;;;;;;;;;;;;;31.25;30.98;99747.97;5045786;28;19913;-66
2023/06/14 09:31:08;;;;;;;;;;;;;;;31.60;30.41;99751.84;5047546;28;19959;-66
2023/06/14 09:33:33;;;;;;;;;;;;;;;31.51;30.60;99742.00;5037267;28;19941;-66
2023/06/14 09:35:59;;;;;;;;;;;;;;;31.40;31.89;99750.75;5032321;28;20347;-65
2023/06/14 09:38:24;;;;;;;;;;;;;;;31.34;30.69;99757.84;5045323;28;20660;-66
2023/06/14 09:40:50;;;;;;;;;;;;;;;31.42;30.80;99760.50;5034494;28;19909;-67
2023/06/14 09:43:16;;;;;;;;;;;;;;;31.48;31.66;99761.66;5037236;28;19956;-66
2023/06/14 09:45:45;;;;;;;;;;;;;;;31.42;31.77;99767.88;5045093;28;20371;-67
2023/06/14 09:48:11;;;;;;;;;;;;;;;31.85;31.06;99778.03;5035403;28;19952;-66
2023/06/14 09:50:36;;;;;;;;;;;;;;;31.79;31.01;99767.81;5042840;28;19963;-66
2023/06/14 09:53:10;;;;;;;;;;;;;;;31.96;31.97;99769.34;5037942;28;20281;-66
2023/06/14 09:55:37;;;;;;;;;;;;;;;32.04;30.52;99769.22;5047617;28;19963;-66
2023/06/14 09:58:04;;;;;;;;;;;;;;;32.13;30.97;99765.31;5042746;28;20391;-66
2023/06/14 10:00:32;;;;;;;;;;;;;;;32.04;30.25;99763.72;5044526;28;19943;-66
2023/06/14 10:03:01;;;;;;;;;;;;;;;32.19;30.00;99760.94;5041962;28;19913;-66
2023/06/14 10:05:28;;;;;;;;;;;;;;;32.47;30.71;99760.00;5036080;28;20376;-66
2023/06/14 10:07:59;;;;;;;;;;;;;;;32.62;29.45;99759.97;5037104;28;20555;-66
2023/06/14 10:10:25;;;;;;;;;;;;;;;32.16;28.97;99753.91;5031103;28;19959;-65
2023/06/14 10:12:51;;;;;;;;;;;;;;;32.21;29.44;99756.94;5042804;28;19917;-66
2023/06/14 10:15:20;;;;;;;;;;;;;;;32.26;29.88;99759.94;5038152;28;19920;-65
2023/06/14 10:18:20;;;;;;;;;;;;;;;32.68;30.45;99754.53;5030085;28;19980;-65
2023/06/14 10:21:08;;;;;;;;;;;;;;;32.96;29.25;99758.19;5031505;28;19923;-66
2023/06/14 10:23:36;;;;;;;;;;;;;;;33.32;29.74;99753.41;5030199;28;19917;-66
2023/06/14 10:26:01;;;;;;;;;;;;;;;33.35;30.04;99750.22;5035288;28;19917;-66
2023/06/14 10:28:27;;;;;;;;;;;;;;;33.66;28.19;99766.34;5030293;28;19916;-66
2023/06/14 10:30:58;;;;;;;;;;;;;;;33.45;28.22;99755.41;5030942;28;19913;-66
2023/06/14 10:33:24;;;;;;;;;;;;;;;33.34;27.72;99751.25;5031163;28;20006;-67
2023/06/14 10:35:49;;;;;;;;;;;;;;;33.33;28.88;99755.09;5047039;28;19966;-66
2023/06/14 10:38:14;;;;;;;;;;;;;;;33.70;29.21;99761.28;5038606;28;19925;-66
2023/06/14 10:40:40;;;;;;;;;;;;;;;33.78;28.02;99761.09;5030117;28;20434;-66
2023/06/14 10:43:24;;;;;;;;;;;;;;;33.52;26.91;99753.56;5036738;28;20027;-67
2023/06/14 10:46:08;;;;;;;;;;;;;;;33.44;27.80;99750.97;5044708;28;19912;-66
2023/06/14 10:48:33;;;;;;;;;;;;;;;33.53;27.07;99759.91;5044045;28;20348;-67
2023/06/14 10:51:02;;;;;;;;;;;;;;;33.83;27.81;99756.69;5041241;28;19935;-67
2023/06/14 10:53:27;;;;;;;;;;;;;;;33.96;27.37;99750.41;5030407;28;19912;-66
2023/06/14 10:55:52;;;;;;;;;;;;;;;34.03;26.70;99741.09;5026057;28;19924;-67
2023/06/14 10:58:17;;;;;;;;;;;;;;;33.98;26.03;99737.25;5034695;28;20393;-66
2023/06/14 11:00:44;;;;;;;;;;;;;;;34.18;28.22;99749.22;5045749;28;19956;-66
2023/06/14 11:03:25;;;;;;;;;;;;;;;33.93;26.76;99748.06;5036314;28;19913;-67
2023/06/14 11:05:52;;;;;;;;;;;;;;;33.89;27.72;99742.06;5029632;28;19939;-67
2023/06/14 11:08:36;;;;;;;;;;;;;;;33.75;26.93;99744.97;5044428;28;19923;-67
2023/06/14 11:11:05;;;;;;;;;;;;;;;33.93;25.84;99742.53;5038733;28;19912;-67
2023/06/14 11:13:30;;;;;;;;;;;;;;;33.84;26.32;99744.59;5035785;28;19916;-67
2023/06/14 11:15:57;;;;;;;;;;;;;;;34.09;26.07;99747.69;5044302;28;19912;-67
2023/06/14 11:18:27;;;;;;;;;;;;;;;34.28;27.28;99741.41;5044628;28;19917;-67
2023/06/14 11:20:52;;;;;;;;;;;;;;;34.18;25.11;99739.03;5039282;28;19917;-67
2023/06/14 11:23:18;;;;;;;;;;;;;;;34.17;25.28;99736.47;5042207;28;19912;-67
2023/06/14 11:25:43;;;;;;;;;;;;;;;34.62;25.55;99741.28;5045962;28;19916;-67
2023/06/14 11:28:08;;;;;;;;;;;;;;;34.36;24.19;99746.72;5042128;28;19919;-67
2023/06/14 11:30:34;;;;;;;;;;;;;;;34.12;24.50;99748.13;5029595;28;20002;-67
2023/06/14 11:32:59;;;;;;;;;;;;;;;34.37;25.37;99740.13;5032221;28;20565;-67
2023/06/14 11:35:25;;;;;;;;;;;;;;;34.69;24.80;99742.16;5044816;28;19921;-67
2023/06/14 11:37:57;;;;;;;;;;;;;;;35.10;25.41;99734.53;5037164;28;19983;-68
2023/06/14 11:40:25;;;;;;;;;;;;;;;34.65;25.18;99735.31;5041577;28;19916;-67
2023/06/14 11:42:57;;;;;;;;;;;;;;;34.88;22.83;99733.00;5040983;28;19971;-67
2023/06/14 11:45:22;;;;;;;;;;;;;;;34.84;24.64;99731.75;5037411;28;19916;-67
2023/06/14 11:47:48;;;;;;;;;;;;;;;34.99;25.50;99735.19;5027592;28;19959;-67
2023/06/14 11:50:13;;;;;;;;;;;;;;;35.03;25.22;99733.69;5043250;28;19909;-67
2023/06/14 11:52:38;;;;;;;;;;;;;;;34.97;26.21;99734.53;5042227;28;19961;-68
2023/06/14 11:55:07;;;;;;;;;;;;;;;35.19;25.19;99719.41;5044946;28;19916;-67
2023/06/14 11:57:36;;;;;;;;;;;;;;;35.12;24.93;99726.88;5030663;28;19963;-67
2023/06/14 12:00:07;;;;;;;;;;;;;;;35.13;26.21;99723.03;5041740;28;19920;-67
2023/06/14 12:02:33;;;;;;;;;;;;;;;35.38;24.80;99729.63;5044919;28;19913;-67
2023/06/14 12:05:03;;;;;;;;;;;;;;;35.25;24.88;99724.09;5040544;28;19970;-67
2023/06/14 12:07:31;;;;;;;;;;;;;;;34.83;25.42;99724.50;5037063;28;19913;-67
2023/06/14 12:09:56;;;;;;;;;;;;;;;34.74;25.77;99725.78;5022418;28;19916;-67
2023/06/14 12:12:22;;;;;;;;;;;;;;;34.77;25.99;99727.25;5029667;28;19913;-67
2023/06/14 12:14:48;;;;;;;;;;;;;;;34.71;25.20;99723.44;5030313;28;19999;-68
2023/06/14 12:17:13;;;;;;;;;;;;;;;34.84;25.75;99737.28;5036780;28;19920;-68
2023/06/14 12:19:42;;;;;;;;;;;;;;;34.68;25.63;99729.38;5040889;28;19935;-67
2023/06/14 12:22:09;;;;;;;;;;;;;;;34.39;25.37;99732.50;5045439;28;20428;-67
2023/06/14 12:24:35;;;;;;;;;;;;;;;34.78;25.45;99732.56;5034480;28;19940;-67
2023/06/14 12:27:02;;;;;;;;;;;;;;;35.16;24.45;99716.22;5033176;28;19991;-68
2023/06/14 12:29:28;;;;;;;;;;;;;;;35.45;25.68;99727.69;5032258;28;19913;-68
2023/06/14 12:31:54;;;;;;;;;;;;;;;35.55;24.91;99717.00;5037952;28;20400;-67
2023/06/14 12:34:19;;;;;;;;;;;;;;;35.25;24.78;99717.72;5033195;28;19920;-67
2023/06/14 12:36:46;;;;;;;;;;;;;;;35.23;24.91;99717.91;5044559;28;19973;-67
2023/06/14 12:39:11;;;;;;;;;;;;;;;34.93;23.91;99724.97;5033666;28;20000;-67
2023/06/14 12:41:36;;;;;;;;;;;;;;;35.22;24.61;99721.78;5037526;28;19917;-67
2023/06/14 12:44:04;;;;;;;;;;;;;;;35.43;25.82;99717.91;5034400;28;19917;-67